sensor_id;sensor_type;location;lat;lon;timestamp;P1;durP1;ratioP1;P2;durP2;ratioP2
30048;SDS011;16879;50.852;15.602;2023-06-22T00:02:17;7.97;;;7.20;;
30048;SDS011;16879;50.852;15.602;2023-06-22T00:04:44;9.70;;;8.70;;
30048;SDS011;16879;50.852;15.602;2023-06-22T00:07:10;8.10;;;7.28;;
30048;SDS011;16879;50.852;15.602;2023-06-22T00:09:36;8.48;;;7.60;;
30048;SDS011;16879;50.852;15.602;2023-06-22T00:12:02;8.52;;;7.57;;
30048;SDS011;16879;50.852;15.602;2023-06-22T00:14:29;10.85;;;8.70;;
30048;SDS011;16879;50.852;15.602;2023-06-22T00:16:55;8.90;;;7.78;;
30048;SDS011;16879;50.852;15.602;2023-06-22T00:19:22;7.47;;;6.78;;
30048;SDS011;16879;50.852;15.602;2023-06-22T00:21:49;11.75;;;8.57;;
30048;SDS011;16879;50.852;15.602;2023-06-22T00:24:19;9.13;;;8.23;;
30048;SDS011;16879;50.852;15.602;2023-06-22T00:26:46;9.20;;;8.30;;
30048;SDS011;16879;50.852;15.602;2023-06-22T00:29:12;9.68;;;8.70;;
30048;SDS011;16879;50.852;15.602;2023-06-22T00:31:38;9.85;;;8.15;;
30048;SDS011;16879;50.852;15.602;2023-06-22T00:34:04;9.40;;;8.50;;
30048;SDS011;16879;50.852;15.602;2023-06-22T00:36:31;8.98;;;8.18;;
30048;SDS011;16879;50.852;15.602;2023-06-22T00:38:58;11.30;;;8.52;;
30048;SDS011;16879;50.852;15.602;2023-06-22T00:41:24;8.93;;;8.10;;
30048;SDS011;16879;50.852;15.602;2023-06-22T00:43:53;10.15;;;9.25;;
30048;SDS011;16879;50.852;15.602;2023-06-22T00:46:19;11.23;;;9.27;;
30048;SDS011;16879;50.852;15.602;2023-06-22T00:48:47;13.50;;;9.02;;
30048;SDS011;16879;50.852;15.602;2023-06-22T00:51:14;8.63;;;7.82;;
30048;SDS011;16879;50.852;15.602;2023-06-22T00:53:42;8.15;;;7.15;;
30048;SDS011;16879;50.852;15.602;2023-06-22T00:56:08;12.38;;;8.80;;
30048;SDS011;16879;50.852;15.602;2023-06-22T00:58:35;11.73;;;8.75;;
30048;SDS011;16879;50.852;15.602;2023-06-22T01:01:01;9.90;;;8.60;;
30048;SDS011;16879;50.852;15.602;2023-06-22T01:03:27;10.68;;;8.32;;
30048;SDS011;16879;50.852;15.602;2023-06-22T01:05:55;8.95;;;8.05;;
30048;SDS011;16879;50.852;15.602;2023-06-22T01:11:31;9.60;;;8.70;;
30048;SDS011;16879;50.852;15.602;2023-06-22T01:14:09;9.05;;;8.15;;
30048;SDS011;16879;50.852;15.602;2023-06-22T01:16:40;10.13;;;9.13;;
30048;SDS011;16879;50.852;15.602;2023-06-22T01:21:52;8.95;;;8.05;;
30048;SDS011;16879;50.852;15.602;2023-06-22T01:24:24;8.70;;;7.85;;
30048;SDS011;16879;50.852;15.602;2023-06-22T01:29:19;9.40;;;8.45;;
30048;SDS011;16879;50.852;15.602;2023-06-22T01:31:47;10.15;;;8.73;;
30048;SDS011;16879;50.852;15.602;2023-06-22T01:34:13;8.60;;;7.80;;
30048;SDS011;16879;50.852;15.602;2023-06-22T01:36:41;9.88;;;8.88;;
30048;SDS011;16879;50.852;15.602;2023-06-22T01:39:08;9.00;;;8.07;;
30048;SDS011;16879;50.852;15.602;2023-06-22T01:41:38;8.52;;;7.72;;
30048;SDS011;16879;50.852;15.602;2023-06-22T01:44:06;9.13;;;7.97;;
30048;SDS011;16879;50.852;15.602;2023-06-22T01:46:36;9.73;;;8.55;;
30048;SDS011;16879;50.852;15.602;2023-06-22T01:49:03;9.40;;;8.57;;
30048;SDS011;16879;50.852;15.602;2023-06-22T01:51:30;9.85;;;8.85;;
30048;SDS011;16879;50.852;15.602;2023-06-22T01:53:56;10.50;;;9.43;;
30048;SDS011;16879;50.852;15.602;2023-06-22T01:56:22;11.13;;;9.00;;
30048;SDS011;16879;50.852;15.602;2023-06-22T02:01:35;10.88;;;8.50;;
30048;SDS011;16879;50.852;15.602;2023-06-22T02:04:22;11.00;;;9.55;;
30048;SDS011;16879;50.852;15.602;2023-06-22T02:06:51;9.75;;;8.60;;
30048;SDS011;16879;50.852;15.602;2023-06-22T02:09:19;10.65;;;9.55;;
30048;SDS011;16879;50.852;15.602;2023-06-22T02:11:46;10.00;;;8.90;;
30048;SDS011;16879;50.852;15.602;2023-06-22T02:14:13;10.15;;;9.18;;
30048;SDS011;16879;50.852;15.602;2023-06-22T02:16:40;10.75;;;9.38;;
30048;SDS011;16879;50.852;15.602;2023-06-22T02:19:07;9.95;;;9.05;;
30048;SDS011;16879;50.852;15.602;2023-06-22T02:21:34;9.55;;;8.63;;
30048;SDS011;16879;50.852;15.602;2023-06-22T02:24:00;10.43;;;9.43;;
30048;SDS011;16879;50.852;15.602;2023-06-22T02:26:26;10.70;;;9.48;;
30048;SDS011;16879;50.852;15.602;2023-06-22T02:28:53;10.45;;;9.50;;
30048;SDS011;16879;50.852;15.602;2023-06-22T02:31:19;12.40;;;9.63;;
30048;SDS011;16879;50.852;15.602;2023-06-22T02:33:45;10.85;;;9.68;;
30048;SDS011;16879;50.852;15.602;2023-06-22T02:36:13;9.85;;;8.80;;
30048;SDS011;16879;50.852;15.602;2023-06-22T02:38:43;11.32;;;9.57;;
30048;SDS011;16879;50.852;15.602;2023-06-22T02:41:13;10.40;;;9.32;;
30048;SDS011;16879;50.852;15.602;2023-06-22T02:43:43;10.48;;;9.38;;
30048;SDS011;16879;50.852;15.602;2023-06-22T02:46:09;12.32;;;9.38;;
30048;SDS011;16879;50.852;15.602;2023-06-22T02:48:35;10.25;;;9.23;;
30048;SDS011;16879;50.852;15.602;2023-06-22T02:51:02;10.13;;;9.10;;
30048;SDS011;16879;50.852;15.602;2023-06-22T02:53:28;10.98;;;9.77;;
30048;SDS011;16879;50.852;15.602;2023-06-22T02:55:55;10.07;;;9.07;;
30048;SDS011;16879;50.852;15.602;2023-06-22T02:58:22;10.00;;;8.70;;
30048;SDS011;16879;50.852;15.602;2023-06-22T03:00:49;11.13;;;8.93;;
30048;SDS011;16879;50.852;15.602;2023-06-22T03:03:19;9.50;;;8.65;;
30048;SDS011;16879;50.852;15.602;2023-06-22T03:05:45;11.05;;;9.93;;
30048;SDS011;16879;50.852;15.602;2023-06-22T03:08:11;10.30;;;9.27;;
30048;SDS011;16879;50.852;15.602;2023-06-22T03:10:37;12.90;;;9.23;;
30048;SDS011;16879;50.852;15.602;2023-06-22T03:13:04;11.23;;;10.13;;
30048;SDS011;16879;50.852;15.602;2023-06-22T03:15:30;12.50;;;9.80;;
30048;SDS011;16879;50.852;15.602;2023-06-22T03:17:57;11.65;;;10.55;;
30048;SDS011;16879;50.852;15.602;2023-06-22T03:20:23;12.02;;;10.68;;
30048;SDS011;16879;50.852;15.602;2023-06-22T03:22:51;11.10;;;9.95;;
30048;SDS011;16879;50.852;15.602;2023-06-22T03:25:18;10.90;;;9.13;;
30048;SDS011;16879;50.852;15.602;2023-06-22T03:27:44;12.27;;;11.13;;
30048;SDS011;16879;50.852;15.602;2023-06-22T03:30:11;13.63;;;11.23;;
30048;SDS011;16879;50.852;15.602;2023-06-22T03:32:37;12.85;;;11.65;;
30048;SDS011;16879;50.852;15.602;2023-06-22T03:35:03;11.48;;;10.38;;
30048;SDS011;16879;50.852;15.602;2023-06-22T03:37:31;12.20;;;10.10;;
30048;SDS011;16879;50.852;15.602;2023-06-22T03:39:57;13.23;;;10.43;;
30048;SDS011;16879;50.852;15.602;2023-06-22T03:42:23;13.98;;;11.23;;
30048;SDS011;16879;50.852;15.602;2023-06-22T03:44:49;12.73;;;10.95;;
30048;SDS011;16879;50.852;15.602;2023-06-22T03:47:16;12.82;;;11.30;;
30048;SDS011;16879;50.852;15.602;2023-06-22T03:49:43;12.45;;;10.75;;
30048;SDS011;16879;50.852;15.602;2023-06-22T03:52:09;14.02;;;11.60;;
30048;SDS011;16879;50.852;15.602;2023-06-22T03:54:36;13.23;;;11.93;;
30048;SDS011;16879;50.852;15.602;2023-06-22T03:57:02;11.93;;;10.25;;
30048;SDS011;16879;50.852;15.602;2023-06-22T03:59:28;13.30;;;10.98;;
30048;SDS011;16879;50.852;15.602;2023-06-22T04:01:54;10.88;;;9.88;;
30048;SDS011;16879;50.852;15.602;2023-06-22T04:04:23;13.23;;;10.75;;
30048;SDS011;16879;50.852;15.602;2023-06-22T04:07:12;12.75;;;10.57;;
30048;SDS011;16879;50.852;15.602;2023-06-22T04:09:43;12.15;;;10.93;;
30048;SDS011;16879;50.852;15.602;2023-06-22T04:12:13;11.38;;;10.30;;
30048;SDS011;16879;50.852;15.602;2023-06-22T04:14:39;11.88;;;10.75;;
30048;SDS011;16879;50.852;15.602;2023-06-22T04:17:06;13.43;;;11.50;;
30048;SDS011;16879;50.852;15.602;2023-06-22T04:19:32;11.75;;;10.55;;
30048;SDS011;16879;50.852;15.602;2023-06-22T04:21:58;12.55;;;11.20;;
30048;SDS011;16879;50.852;15.602;2023-06-22T04:24:25;12.23;;;10.18;;
30048;SDS011;16879;50.852;15.602;2023-06-22T04:26:53;12.98;;;11.60;;
30048;SDS011;16879;50.852;15.602;2023-06-22T04:29:20;10.98;;;9.88;;
30048;SDS011;16879;50.852;15.602;2023-06-22T04:31:54;16.05;;;10.25;;
30048;SDS011;16879;50.852;15.602;2023-06-22T04:34:27;12.00;;;10.07;;
30048;SDS011;16879;50.852;15.602;2023-06-22T04:36:59;10.30;;;9.05;;
30048;SDS011;16879;50.852;15.602;2023-06-22T04:39:25;9.18;;;8.27;;
30048;SDS011;16879;50.852;15.602;2023-06-22T04:41:52;9.55;;;8.57;;
30048;SDS011;16879;50.852;15.602;2023-06-22T04:54:16;9.98;;;8.73;;
30048;SDS011;16879;50.852;15.602;2023-06-22T05:02:18;9.45;;;8.63;;
30048;SDS011;16879;50.852;15.602;2023-06-22T05:04:57;9.55;;;8.65;;
30048;SDS011;16879;50.852;15.602;2023-06-22T05:07:23;15.15;;;9.40;;
30048;SDS011;16879;50.852;15.602;2023-06-22T05:09:51;11.23;;;10.20;;
30048;SDS011;16879;50.852;15.602;2023-06-22T05:12:18;10.93;;;9.82;;
30048;SDS011;16879;50.852;15.602;2023-06-22T05:14:44;13.02;;;10.75;;
30048;SDS011;16879;50.852;15.602;2023-06-22T05:17:45;12.95;;;10.07;;
30048;SDS011;16879;50.852;15.602;2023-06-22T05:20:11;11.00;;;9.20;;
30048;SDS011;16879;50.852;15.602;2023-06-22T05:22:46;14.32;;;12.77;;
30048;SDS011;16879;50.852;15.602;2023-06-22T05:25:32;11.93;;;10.73;;
30048;SDS011;16879;50.852;15.602;2023-06-22T05:28:10;10.90;;;9.85;;
30048;SDS011;16879;50.852;15.602;2023-06-22T05:30:38;12.07;;;10.80;;
30048;SDS011;16879;50.852;15.602;2023-06-22T05:33:04;10.88;;;9.77;;
30048;SDS011;16879;50.852;15.602;2023-06-22T05:35:30;11.15;;;10.05;;
30048;SDS011;16879;50.852;15.602;2023-06-22T05:37:57;11.10;;;9.95;;
30048;SDS011;16879;50.852;15.602;2023-06-22T05:40:24;12.13;;;10.80;;
30048;SDS011;16879;50.852;15.602;2023-06-22T05:42:50;11.32;;;10.18;;
30048;SDS011;16879;50.852;15.602;2023-06-22T05:45:16;12.32;;;11.18;;
30048;SDS011;16879;50.852;15.602;2023-06-22T05:47:43;12.32;;;11.00;;
30048;SDS011;16879;50.852;15.602;2023-06-22T05:50:10;11.18;;;10.05;;
30048;SDS011;16879;50.852;15.602;2023-06-22T05:52:36;11.55;;;10.45;;
30048;SDS011;16879;50.852;15.602;2023-06-22T05:55:02;13.20;;;11.90;;
30048;SDS011;16879;50.852;15.602;2023-06-22T05:57:30;12.75;;;10.82;;
30048;SDS011;16879;50.852;15.602;2023-06-22T05:59:56;13.07;;;11.70;;
30048;SDS011;16879;50.852;15.602;2023-06-22T06:02:22;14.73;;;12.30;;
30048;SDS011;16879;50.852;15.602;2023-06-22T06:04:48;16.65;;;12.48;;
30048;SDS011;16879;50.852;15.602;2023-06-22T06:07:17;13.85;;;12.45;;
30048;SDS011;16879;50.852;15.602;2023-06-22T06:09:47;16.23;;;11.73;;
30048;SDS011;16879;50.852;15.602;2023-06-22T06:12:14;14.65;;;12.40;;
30048;SDS011;16879;50.852;15.602;2023-06-22T06:14:40;15.07;;;11.32;;
30048;SDS011;16879;50.852;15.602;2023-06-22T06:17:06;12.85;;;11.55;;
30048;SDS011;16879;50.852;15.602;2023-06-22T06:19:32;12.65;;;11.52;;
30048;SDS011;16879;50.852;15.602;2023-06-22T06:21:59;12.00;;;10.80;;
30048;SDS011;16879;50.852;15.602;2023-06-22T06:24:25;13.95;;;12.50;;
30048;SDS011;16879;50.852;15.602;2023-06-22T06:26:51;14.05;;;11.23;;
30048;SDS011;16879;50.852;15.602;2023-06-22T06:29:17;13.13;;;11.20;;
30048;SDS011;16879;50.852;15.602;2023-06-22T06:31:44;13.68;;;12.38;;
30048;SDS011;16879;50.852;15.602;2023-06-22T06:34:10;12.43;;;11.32;;
30048;SDS011;16879;50.852;15.602;2023-06-22T06:36:37;12.25;;;11.02;;
30048;SDS011;16879;50.852;15.602;2023-06-22T06:39:03;13.00;;;11.85;;
30048;SDS011;16879;50.852;15.602;2023-06-22T06:41:30;13.52;;;11.93;;
30048;SDS011;16879;50.852;15.602;2023-06-22T06:43:56;12.25;;;11.13;;
30048;SDS011;16879;50.852;15.602;2023-06-22T06:46:22;13.07;;;11.65;;
30048;SDS011;16879;50.852;15.602;2023-06-22T06:48:48;12.90;;;11.57;;
30048;SDS011;16879;50.852;15.602;2023-06-22T06:51:14;14.27;;;12.88;;
30048;SDS011;16879;50.852;15.602;2023-06-22T06:53:41;13.23;;;12.02;;
30048;SDS011;16879;50.852;15.602;2023-06-22T06:56:07;10.60;;;9.70;;
30048;SDS011;16879;50.852;15.602;2023-06-22T06:58:35;13.85;;;12.55;;
30048;SDS011;16879;50.852;15.602;2023-06-22T07:01:02;12.00;;;10.90;;
30048;SDS011;16879;50.852;15.602;2023-06-22T07:03:28;14.75;;;12.68;;
30048;SDS011;16879;50.852;15.602;2023-06-22T07:05:54;12.90;;;11.60;;
30048;SDS011;16879;50.852;15.602;2023-06-22T07:08:20;12.73;;;11.35;;
30048;SDS011;16879;50.852;15.602;2023-06-22T07:10:46;12.68;;;11.48;;
30048;SDS011;16879;50.852;15.602;2023-06-22T07:13:12;12.38;;;11.18;;
30048;SDS011;16879;50.852;15.602;2023-06-22T07:15:39;13.25;;;11.07;;
30048;SDS011;16879;50.852;15.602;2023-06-22T07:18:09;13.57;;;12.27;;
30048;SDS011;16879;50.852;15.602;2023-06-22T07:20:38;12.25;;;11.15;;
30048;SDS011;16879;50.852;15.602;2023-06-22T07:23:24;12.30;;;11.10;;
30048;SDS011;16879;50.852;15.602;2023-06-22T07:26:13;13.05;;;11.85;;
30048;SDS011;16879;50.852;15.602;2023-06-22T07:28:54;12.65;;;11.55;;
30048;SDS011;16879;50.852;15.602;2023-06-22T07:31:40;11.13;;;10.13;;
30048;SDS011;16879;50.852;15.602;2023-06-22T07:34:08;13.55;;;10.82;;
30048;SDS011;16879;50.852;15.602;2023-06-22T07:36:36;13.93;;;10.68;;
30048;SDS011;16879;50.852;15.602;2023-06-22T07:39:06;12.27;;;11.10;;
30048;SDS011;16879;50.852;15.602;2023-06-22T07:42:02;10.63;;;9.63;;
30048;SDS011;16879;50.852;15.602;2023-06-22T07:44:40;10.70;;;9.77;;
30048;SDS011;16879;50.852;15.602;2023-06-22T07:47:28;12.70;;;11.48;;
30048;SDS011;16879;50.852;15.602;2023-06-22T07:49:57;13.32;;;10.25;;
30048;SDS011;16879;50.852;15.602;2023-06-22T07:52:26;11.98;;;10.77;;
30048;SDS011;16879;50.852;15.602;2023-06-22T07:54:54;11.75;;;10.50;;
30048;SDS011;16879;50.852;15.602;2023-06-22T07:57:20;11.73;;;10.63;;
30048;SDS011;16879;50.852;15.602;2023-06-22T07:59:47;11.32;;;10.18;;
30048;SDS011;16879;50.852;15.602;2023-06-22T08:02:13;12.07;;;10.88;;
30048;SDS011;16879;50.852;15.602;2023-06-22T08:04:39;11.52;;;10.45;;
30048;SDS011;16879;50.852;15.602;2023-06-22T08:07:06;11.70;;;10.00;;
30048;SDS011;16879;50.852;15.602;2023-06-22T08:09:33;12.25;;;10.15;;
30048;SDS011;16879;50.852;15.602;2023-06-22T08:11:59;9.73;;;8.93;;
30048;SDS011;16879;50.852;15.602;2023-06-22T08:14:25;11.38;;;9.98;;
30048;SDS011;16879;50.852;15.602;2023-06-22T08:16:52;10.93;;;9.70;;
30048;SDS011;16879;50.852;15.602;2023-06-22T08:19:18;10.32;;;9.35;;
30048;SDS011;16879;50.852;15.602;2023-06-22T08:21:44;12.65;;;8.90;;
30048;SDS011;16879;50.852;15.602;2023-06-22T08:24:10;10.18;;;9.18;;
30048;SDS011;16879;50.852;15.602;2023-06-22T08:26:36;11.13;;;9.77;;
30048;SDS011;16879;50.852;15.602;2023-06-22T08:29:03;9.77;;;8.88;;
30048;SDS011;16879;50.852;15.602;2023-06-22T08:31:30;10.57;;;9.68;;
30048;SDS011;16879;50.852;15.602;2023-06-22T08:33:57;10.25;;;9.35;;
30048;SDS011;16879;50.852;15.602;2023-06-22T08:36:23;8.48;;;7.55;;
30048;SDS011;16879;50.852;15.602;2023-06-22T08:38:49;10.13;;;9.13;;
30048;SDS011;16879;50.852;15.602;2023-06-22T08:41:16;11.10;;;9.02;;
30048;SDS011;16879;50.852;15.602;2023-06-22T08:43:43;8.95;;;8.18;;
30048;SDS011;16879;50.852;15.602;2023-06-22T08:46:09;10.88;;;8.93;;
30048;SDS011;16879;50.852;15.602;2023-06-22T08:48:35;10.48;;;9.45;;
30048;SDS011;16879;50.852;15.602;2023-06-22T08:51:02;11.93;;;9.07;;
30048;SDS011;16879;50.852;15.602;2023-06-22T08:53:28;10.60;;;9.23;;
30048;SDS011;16879;50.852;15.602;2023-06-22T08:55:54;11.35;;;10.15;;
30048;SDS011;16879;50.852;15.602;2023-06-22T08:58:21;11.35;;;10.32;;
30048;SDS011;16879;50.852;15.602;2023-06-22T09:00:49;10.27;;;8.95;;
30048;SDS011;16879;50.852;15.602;2023-06-22T09:03:16;16.98;;;9.50;;
30048;SDS011;16879;50.852;15.602;2023-06-22T09:05:43;9.77;;;8.65;;
30048;SDS011;16879;50.852;15.602;2023-06-22T09:08:10;9.63;;;8.73;;
30048;SDS011;16879;50.852;15.602;2023-06-22T09:10:36;9.68;;;8.68;;
30048;SDS011;16879;50.852;15.602;2023-06-22T09:13:02;10.63;;;9.60;;
30048;SDS011;16879;50.852;15.602;2023-06-22T09:15:28;11.52;;;9.43;;
30048;SDS011;16879;50.852;15.602;2023-06-22T09:17:55;10.15;;;9.25;;
30048;SDS011;16879;50.852;15.602;2023-06-22T09:20:22;9.57;;;8.77;;
30048;SDS011;16879;50.852;15.602;2023-06-22T09:22:48;10.20;;;9.20;;
30048;SDS011;16879;50.852;15.602;2023-06-22T09:25:14;9.45;;;8.65;;
30048;SDS011;16879;50.852;15.602;2023-06-22T09:27:46;10.18;;;9.13;;
30048;SDS011;16879;50.852;15.602;2023-06-22T09:30:22;10.57;;;9.52;;
30048;SDS011;16879;50.852;15.602;2023-06-22T09:32:48;9.98;;;9.05;;
30048;SDS011;16879;50.852;15.602;2023-06-22T09:35:14;9.85;;;8.98;;
30048;SDS011;16879;50.852;15.602;2023-06-22T09:37:40;8.70;;;8.00;;
30048;SDS011;16879;50.852;15.602;2023-06-22T09:40:07;8.70;;;8.00;;
30048;SDS011;16879;50.852;15.602;2023-06-22T09:42:38;9.23;;;8.32;;
30048;SDS011;16879;50.852;15.602;2023-06-22T09:45:04;9.48;;;8.57;;
30048;SDS011;16879;50.852;15.602;2023-06-22T09:47:31;9.82;;;8.88;;
30048;SDS011;16879;50.852;15.602;2023-06-22T09:49:57;8.82;;;7.93;;
30048;SDS011;16879;50.852;15.602;2023-06-22T09:52:24;9.23;;;8.43;;
30048;SDS011;16879;50.852;15.602;2023-06-22T09:54:51;8.60;;;7.80;;
30048;SDS011;16879;50.852;15.602;2023-06-22T09:57:17;9.30;;;8.38;;
30048;SDS011;16879;50.852;15.602;2023-06-22T09:59:43;8.77;;;7.88;;
30048;SDS011;16879;50.852;15.602;2023-06-22T10:02:10;9.50;;;8.63;;
30048;SDS011;16879;50.852;15.602;2023-06-22T10:04:36;8.93;;;8.02;;
30048;SDS011;16879;50.852;15.602;2023-06-22T10:07:02;8.88;;;8.10;;
30048;SDS011;16879;50.852;15.602;2023-06-22T10:09:28;8.80;;;8.00;;
30048;SDS011;16879;50.852;15.602;2023-06-22T10:11:55;9.43;;;8.52;;
30048;SDS011;16879;50.852;15.602;2023-06-22T10:14:21;11.10;;;8.30;;
30048;SDS011;16879;50.852;15.602;2023-06-22T10:16:48;10.20;;;9.20;;
30048;SDS011;16879;50.852;15.602;2023-06-22T10:19:14;15.70;;;9.52;;
30048;SDS011;16879;50.852;15.602;2023-06-22T10:21:40;9.73;;;8.75;;
30048;SDS011;16879;50.852;15.602;2023-06-22T10:24:06;11.13;;;9.95;;
30048;SDS011;16879;50.852;15.602;2023-06-22T10:26:33;10.80;;;9.07;;
30048;SDS011;16879;50.852;15.602;2023-06-22T10:29:02;9.30;;;8.45;;
30048;SDS011;16879;50.852;15.602;2023-06-22T10:31:30;8.77;;;7.90;;
30048;SDS011;16879;50.852;15.602;2023-06-22T10:34:01;8.75;;;7.95;;
30048;SDS011;16879;50.852;15.602;2023-06-22T10:36:30;10.38;;;8.73;;
30048;SDS011;16879;50.852;15.602;2023-06-22T10:38:56;11.73;;;9.43;;
30048;SDS011;16879;50.852;15.602;2023-06-22T10:41:24;10.65;;;9.55;;
30048;SDS011;16879;50.852;15.602;2023-06-22T10:43:50;9.65;;;8.73;;
30048;SDS011;16879;50.852;15.602;2023-06-22T10:46:16;9.68;;;8.45;;
30048;SDS011;16879;50.852;15.602;2023-06-22T10:48:43;12.75;;;10.40;;
30048;SDS011;16879;50.852;15.602;2023-06-22T10:51:09;10.93;;;8.98;;
30048;SDS011;16879;50.852;15.602;2023-06-22T10:53:35;9.65;;;8.32;;
30048;SDS011;16879;50.852;15.602;2023-06-22T10:56:01;10.13;;;9.15;;
30048;SDS011;16879;50.852;15.602;2023-06-22T10:58:27;9.90;;;9.00;;
30048;SDS011;16879;50.852;15.602;2023-06-22T11:00:54;9.80;;;8.75;;
30048;SDS011;16879;50.852;15.602;2023-06-22T11:03:21;9.40;;;8.60;;
30048;SDS011;16879;50.852;15.602;2023-06-22T11:05:51;8.85;;;8.05;;
30048;SDS011;16879;50.852;15.602;2023-06-22T11:08:17;9.63;;;8.80;;
30048;SDS011;16879;50.852;15.602;2023-06-22T11:10:43;9.60;;;8.77;;
30048;SDS011;16879;50.852;15.602;2023-06-22T11:13:10;9.73;;;8.82;;
30048;SDS011;16879;50.852;15.602;2023-06-22T11:15:36;9.80;;;9.00;;
30048;SDS011;16879;50.852;15.602;2023-06-22T11:18:02;9.27;;;8.45;;
30048;SDS011;16879;50.852;15.602;2023-06-22T11:20:30;9.63;;;8.77;;
30048;SDS011;16879;50.852;15.602;2023-06-22T11:22:58;10.15;;;9.15;;
30048;SDS011;16879;50.852;15.602;2023-06-22T11:25:25;12.38;;;9.05;;
30048;SDS011;16879;50.852;15.602;2023-06-22T11:27:55;10.30;;;9.18;;
30048;SDS011;16879;50.852;15.602;2023-06-22T11:30:21;10.43;;;9.45;;
30048;SDS011;16879;50.852;15.602;2023-06-22T11:32:48;10.07;;;9.07;;
30048;SDS011;16879;50.852;15.602;2023-06-22T11:35:15;10.00;;;9.00;;
30048;SDS011;16879;50.852;15.602;2023-06-22T11:37:42;12.50;;;9.80;;
30048;SDS011;16879;50.852;15.602;2023-06-22T11:40:08;10.35;;;9.45;;
30048;SDS011;16879;50.852;15.602;2023-06-22T11:42:34;11.45;;;8.77;;
30048;SDS011;16879;50.852;15.602;2023-06-22T11:45:01;28.38;;;11.07;;
30048;SDS011;16879;50.852;15.602;2023-06-22T11:47:27;29.08;;;10.13;;
30048;SDS011;16879;50.852;15.602;2023-06-22T11:49:53;10.30;;;8.93;;
30048;SDS011;16879;50.852;15.602;2023-06-22T11:52:19;10.73;;;9.73;;
30048;SDS011;16879;50.852;15.602;2023-06-22T11:54:46;9.30;;;8.45;;
30048;SDS011;16879;50.852;15.602;2023-06-22T11:57:12;8.68;;;7.88;;
30048;SDS011;16879;50.852;15.602;2023-06-22T11:59:38;9.02;;;8.15;;
30048;SDS011;16879;50.852;15.602;2023-06-22T12:02:06;9.82;;;8.82;;
30048;SDS011;16879;50.852;15.602;2023-06-22T12:04:32;9.15;;;8.35;;
30048;SDS011;16879;50.852;15.602;2023-06-22T12:06:58;12.90;;;8.23;;
30048;SDS011;16879;50.852;15.602;2023-06-22T12:09:24;12.07;;;9.68;;
30048;SDS011;16879;50.852;15.602;2023-06-22T12:11:52;9.23;;;8.32;;
30048;SDS011;16879;50.852;15.602;2023-06-22T12:14:18;9.60;;;8.60;;
30048;SDS011;16879;50.852;15.602;2023-06-22T12:16:44;11.18;;;9.20;;
30048;SDS011;16879;50.852;15.602;2023-06-22T12:19:11;9.50;;;8.70;;
30048;SDS011;16879;50.852;15.602;2023-06-22T12:21:38;10.55;;;9.50;;
30048;SDS011;16879;50.852;15.602;2023-06-22T12:24:05;11.40;;;10.13;;
30048;SDS011;16879;50.852;15.602;2023-06-22T12:26:41;10.35;;;9.45;;
30048;SDS011;16879;50.852;15.602;2023-06-22T12:29:08;9.77;;;8.88;;
30048;SDS011;16879;50.852;15.602;2023-06-22T12:31:35;12.10;;;10.10;;
30048;SDS011;16879;50.852;15.602;2023-06-22T12:34:04;9.77;;;8.88;;
30048;SDS011;16879;50.852;15.602;2023-06-22T12:36:30;10.02;;;9.15;;
30048;SDS011;16879;50.852;15.602;2023-06-22T12:38:56;10.88;;;9.73;;
30048;SDS011;16879;50.852;15.602;2023-06-22T12:41:22;9.52;;;8.65;;
30048;SDS011;16879;50.852;15.602;2023-06-22T12:43:49;9.57;;;8.68;;
30048;SDS011;16879;50.852;15.602;2023-06-22T12:46:16;12.25;;;8.80;;
30048;SDS011;16879;50.852;15.602;2023-06-22T12:48:49;9.60;;;8.70;;
30048;SDS011;16879;50.852;15.602;2023-06-22T12:51:27;9.20;;;8.50;;
30048;SDS011;16879;50.852;15.602;2023-06-22T12:53:58;9.40;;;8.60;;
30048;SDS011;16879;50.852;15.602;2023-06-22T12:56:25;9.50;;;8.48;;
30048;SDS011;16879;50.852;15.602;2023-06-22T12:58:51;10.60;;;9.55;;
30048;SDS011;16879;50.852;15.602;2023-06-22T13:01:17;10.40;;;9.52;;
30048;SDS011;16879;50.852;15.602;2023-06-22T13:03:44;9.82;;;8.75;;
30048;SDS011;16879;50.852;15.602;2023-06-22T13:06:11;9.32;;;8.43;;
30048;SDS011;16879;50.852;15.602;2023-06-22T13:08:37;9.95;;;9.07;;
30048;SDS011;16879;50.852;15.602;2023-06-22T13:11:04;10.00;;;9.00;;
30048;SDS011;16879;50.852;15.602;2023-06-22T13:13:30;9.23;;;8.43;;
30048;SDS011;16879;50.852;15.602;2023-06-22T13:16:00;10.23;;;9.23;;
30048;SDS011;16879;50.852;15.602;2023-06-22T13:18:26;11.05;;;10.05;;
30048;SDS011;16879;50.852;15.602;2023-06-22T13:20:59;10.60;;;9.60;;
30048;SDS011;16879;50.852;15.602;2023-06-22T13:23:29;9.80;;;8.98;;
30048;SDS011;16879;50.852;15.602;2023-06-22T13:25:59;11.02;;;9.85;;
30048;SDS011;16879;50.852;15.602;2023-06-22T13:28:34;10.23;;;9.43;;
30048;SDS011;16879;50.852;15.602;2023-06-22T13:31:00;10.55;;;9.48;;
30048;SDS011;16879;50.852;15.602;2023-06-22T13:33:27;11.52;;;9.43;;
30048;SDS011;16879;50.852;15.602;2023-06-22T13:35:53;10.63;;;9.65;;
30048;SDS011;16879;50.852;15.602;2023-06-22T13:38:19;10.82;;;9.80;;
30048;SDS011;16879;50.852;15.602;2023-06-22T13:40:45;11.10;;;9.75;;
30048;SDS011;16879;50.852;15.602;2023-06-22T13:43:12;10.75;;;9.75;;
30048;SDS011;16879;50.852;15.602;2023-06-22T13:45:45;11.00;;;10.10;;
30048;SDS011;16879;50.852;15.602;2023-06-22T13:48:13;10.65;;;9.77;;
30048;SDS011;16879;50.852;15.602;2023-06-22T13:50:57;10.60;;;9.55;;
30048;SDS011;16879;50.852;15.602;2023-06-22T13:53:30;10.98;;;9.93;;
30048;SDS011;16879;50.852;15.602;2023-06-22T13:55:56;10.13;;;9.23;;
30048;SDS011;16879;50.852;15.602;2023-06-22T13:58:26;11.02;;;9.93;;
30048;SDS011;16879;50.852;15.602;2023-06-22T14:00:52;10.48;;;9.57;;
30048;SDS011;16879;50.852;15.602;2023-06-22T14:03:19;12.10;;;10.98;;
30048;SDS011;16879;50.852;15.602;2023-06-22T14:05:45;11.05;;;9.88;;
30048;SDS011;16879;50.852;15.602;2023-06-22T14:08:13;11.75;;;10.68;;
30048;SDS011;16879;50.852;15.602;2023-06-22T14:10:40;10.50;;;9.40;;
30048;SDS011;16879;50.852;15.602;2023-06-22T14:13:06;11.30;;;10.30;;
30048;SDS011;16879;50.852;15.602;2023-06-22T14:15:32;11.95;;;10.93;;
30048;SDS011;16879;50.852;15.602;2023-06-22T14:17:59;12.05;;;10.85;;
30048;SDS011;16879;50.852;15.602;2023-06-22T14:20:26;12.05;;;10.98;;
30048;SDS011;16879;50.852;15.602;2023-06-22T14:22:55;11.65;;;10.65;;
30048;SDS011;16879;50.852;15.602;2023-06-22T14:25:24;12.50;;;11.35;;
30048;SDS011;16879;50.852;15.602;2023-06-22T14:27:58;11.88;;;10.80;;
30048;SDS011;16879;50.852;15.602;2023-06-22T14:44:26;11.88;;;10.80;;
30048;SDS011;16879;50.852;15.602;2023-06-22T14:46:54;11.98;;;10.95;;
30048;SDS011;16879;50.852;15.602;2023-06-22T14:49:21;11.98;;;10.98;;
30048;SDS011;16879;50.852;15.602;2023-06-22T14:51:47;12.48;;;11.27;;
30048;SDS011;16879;50.852;15.602;2023-06-22T14:54:13;11.30;;;10.30;;
30048;SDS011;16879;50.852;15.602;2023-06-22T14:56:39;11.63;;;10.40;;
30048;SDS011;16879;50.852;15.602;2023-06-22T14:59:05;11.75;;;10.55;;
30048;SDS011;16879;50.852;15.602;2023-06-22T15:01:34;12.63;;;10.57;;
30048;SDS011;16879;50.852;15.602;2023-06-22T15:04:07;11.88;;;10.98;;
30048;SDS011;16879;50.852;15.602;2023-06-22T15:06:33;11.65;;;10.48;;